Time;durP1;ratioP1;P1;durP2;ratioP2;P2;SDS_P1;SDS_P2;PMS_P1;PMS_P2;Temp;Humidity;BMP_temperature;BMP_pressure;BME280_temperature;BME280_humidity;BME280_pressure;Samples;Min_cycle;Max_cycle;Signal;HPM_P1;HPM_P2
2022/12/16 00:01:05;;;;;;;44.30;31.23;;;-0.20;99.90;;;;;;5075424;28;20238;-78
2022/12/16 00:03:32;;;;;;;39.10;27.52;;;-0.20;99.90;;;;;;5074115;28;20323;-77
2022/12/16 00:06:02;;;;;;;45.65;28.25;;;-0.20;99.90;;;;;;5074566;28;20262;-77
2022/12/16 00:08:30;;;;;;;39.72;28.88;;;-0.30;99.90;;;;;;5074123;28;20277;-78
2022/12/16 00:10:59;;;;;;;41.42;29.35;;;-0.30;99.90;;;;;;5073938;28;20219;-77
2022/12/16 00:13:27;;;;;;;44.30;31.17;;;-0.40;99.90;;;;;;5073556;28;20247;-78
2022/12/16 00:15:54;;;;;;;41.53;29.80;;;-0.50;99.90;;;;;;5074322;28;20217;-76
2022/12/16 00:18:28;;;;;;;41.47;30.00;;;-0.50;99.90;;;;;;5073428;28;20244;-76
2022/12/16 00:20:55;;;;;;;44.25;29.77;;;-0.50;99.90;;;;;;5074300;28;20224;-77
2022/12/16 00:23:23;;;;;;;41.35;29.42;;;-0.50;99.90;;;;;;5066331;28;20629;-78
2022/12/16 00:25:50;;;;;;;42.67;28.55;;;-0.50;99.90;;;;;;5044305;28;20298;-77
2022/12/16 00:28:21;;;;;;;39.17;28.20;;;-0.60;99.90;;;;;;5053784;28;20229;-77
2022/12/16 00:30:50;;;;;;;39.03;28.27;;;-0.60;99.90;;;;;;5052124;28;20236;-78
2022/12/16 00:33:18;;;;;;;44.13;28.27;;;-0.60;99.90;;;;;;5062782;28;20235;-77
2022/12/16 00:35:45;;;;;;;40.58;28.00;;;-0.60;99.90;;;;;;5071042;28;20568;-77
2022/12/16 00:38:12;;;;;;;38.22;27.10;;;-0.60;99.90;;;;;;5066538;28;20232;-79
2022/12/16 00:40:39;;;;;;;36.53;27.00;;;-0.60;99.90;;;;;;5052450;28;20700;-79
2022/12/16 00:43:06;;;;;;;38.88;27.83;;;-0.60;99.90;;;;;;5035473;28;20573;-79
2022/12/16 00:45:35;;;;;;;38.88;27.88;;;-0.60;99.90;;;;;;5032046;28;20606;-79
2022/12/16 00:48:04;;;;;;;41.63;28.00;;;-0.60;99.90;;;;;;5033619;28;20291;-79
2022/12/16 00:50:31;;;;;;;38.22;26.13;;;-0.70;99.90;;;;;;5037734;28;20229;-77
2022/12/16 00:52:59;;;;;;;38.33;26.85;;;-0.60;99.90;;;;;;5041374;28;20224;-79
2022/12/16 00:55:26;;;;;;;37.95;28.63;;;-0.60;99.90;;;;;;5041640;28;20292;-77
2022/12/16 00:57:53;;;;;;;41.33;26.25;;;-0.60;99.90;;;;;;5055633;28;20216;-77
2022/12/16 01:00:21;;;;;;;42.55;29.10;;;-0.60;99.90;;;;;;5058315;28;20335;-77
2022/12/16 01:02:52;;;;;;;44.15;28.13;;;-0.60;99.90;;;;;;5052101;28;20315;-77
2022/12/16 01:05:26;;;;;;;36.35;26.25;;;-0.60;99.90;;;;;;5052442;28;20704;-78
2022/12/16 01:07:54;;;;;;;37.38;26.58;;;-0.60;99.90;;;;;;5051215;28;20582;-76
2022/12/16 01:10:21;;;;;;;37.10;25.58;;;-0.60;99.90;;;;;;5067861;28;20235;-78
2022/12/16 01:12:48;;;;;;;40.80;27.75;;;-0.60;99.90;;;;;;5061459;28;20271;-77
2022/12/16 01:15:16;;;;;;;42.88;28.92;;;-0.50;99.90;;;;;;5052674;28;20678;-77
2022/12/16 01:17:44;;;;;;;39.20;27.60;;;-0.50;99.90;;;;;;5050014;28;20235;-79
2022/12/16 01:20:13;;;;;;;41.28;27.13;;;-0.50;99.90;;;;;;5044915;28;20229;-80
2022/12/16 01:22:40;;;;;;;42.22;30.77;;;-0.50;99.90;;;;;;5052191;28;20297;-79
2022/12/16 01:25:08;;;;;;;41.75;29.77;;;-0.40;99.90;;;;;;5045321;28;20621;-77
2022/12/16 01:27:35;;;;;;;41.10;28.33;;;-0.40;99.90;;;;;;5032002;28;20225;-78
2022/12/16 01:30:02;;;;;;;36.78;26.45;;;-0.40;99.90;;;;;;5033405;28;20572;-78
2022/12/16 01:32:32;;;;;;;38.03;26.15;;;-0.50;99.90;;;;;;5031434;28;20304;-77
2022/12/16 01:34:59;;;;;;;38.90;27.60;;;-0.50;99.90;;;;;;5051271;28;20220;-77
2022/12/16 01:37:28;;;;;;;38.30;26.45;;;-0.50;99.90;;;;;;5053231;28;20675;-80
2022/12/16 01:39:55;;;;;;;36.38;25.33;;;-0.50;99.90;;;;;;5053132;28;21380;-79
2022/12/16 01:42:23;;;;;;;35.85;25.17;;;-0.50;99.90;;;;;;5057555;28;20638;-79
2022/12/16 01:44:53;;;;;;;34.20;25.85;;;-0.60;99.90;;;;;;5071617;28;20243;-80
2022/12/16 01:47:25;;;;;;;34.05;25.65;;;-0.60;99.90;;;;;;5070795;28;20227;-78
2022/12/16 01:49:57;;;;;;;46.28;28.02;;;-0.60;99.90;;;;;;5071160;28;20227;-77
2022/12/16 01:52:33;;;;;;;37.78;24.45;;;-0.70;99.90;;;;;;5071998;28;20529;-79
2022/12/16 01:55:03;;;;;;;38.80;26.33;;;-0.70;99.90;;;;;;5073717;28;20223;-79
2022/12/16 01:57:36;;;;;;;42.67;27.25;;;-0.80;99.90;;;;;;5072808;28;20230;-77
2022/12/16 02:00:06;;;;;;;40.30;28.08;;;-0.80;99.90;;;;;;5058663;28;20664;-79
2022/12/16 02:02:33;;;;;;;38.42;24.35;;;-0.80;99.90;;;;;;5067711;28;20228;-77
2022/12/16 02:07:56;;;;;;;36.63;25.17;;;-0.80;99.90;;;;;;5061314;28;20579;-78
2022/12/16 02:10:30;;;;;;;36.17;25.85;;;-0.80;99.90;;;;;;5072537;28;20238;-77
2022/12/16 02:13:05;;;;;;;37.40;26.40;;;-0.80;99.90;;;;;;5071974;28;20254;-77
2022/12/16 02:15:51;;;;;;;35.65;25.10;;;-0.90;99.90;;;;;;5073061;28;20597;-77
2022/12/16 02:18:32;;;;;;;36.90;25.27;;;-0.80;99.90;;;;;;5065528;28;20652;-79
2022/12/16 02:21:15;;;;;;;39.20;26.13;;;-0.80;99.90;;;;;;5053558;28;20212;-80
2022/12/16 02:24:25;;;;;;;37.30;26.52;;;-0.80;99.90;;;;;;5060445;28;20212;-78
2022/12/16 02:27:34;;;;;;;42.72;26.13;;;-0.80;99.90;;;;;;5057979;28;20225;-80
2022/12/16 02:30:23;;;;;;;39.17;25.40;;;-0.80;99.90;;;;;;5038767;28;20316;-80
2022/12/16 02:32:58;;;;;;;31.98;23.60;;;-0.80;99.90;;;;;;5030227;28;20563;-78
2022/12/16 02:35:33;;;;;;;32.78;23.92;;;-0.80;99.90;;;;;;5043444;28;20216;-77
2022/12/16 02:38:14;;;;;;;36.47;25.55;;;-0.80;99.90;;;;;;5048609;28;21129;-81
2022/12/16 02:40:47;;;;;;;38.75;25.90;;;-0.80;99.90;;;;;;5039358;28;20233;-80
2022/12/16 02:43:22;;;;;;;40.55;23.83;;;-0.80;99.90;;;;;;5047141;28;20228;-79
2022/12/16 02:45:51;;;;;;;41.70;25.80;;;-0.80;99.90;;;;;;5057699;28;20224;-77
2022/12/16 02:48:18;;;;;;;37.67;24.75;;;-0.80;99.90;;;;;;5054998;28;20228;-79
2022/12/16 02:50:49;;;;;;;37.17;24.55;;;-0.80;99.90;;;;;;5054565;28;20233;-78
2022/12/16 02:53:17;;;;;;;39.35;26.98;;;-0.80;99.90;;;;;;5052598;28;20228;-78
2022/12/16 02:55:56;;;;;;;37.17;25.98;;;-0.90;99.90;;;;;;5055111;28;20221;-78
2022/12/16 02:58:28;;;;;;;32.85;24.67;;;-0.90;99.90;;;;;;5063526;28;20236;-78
2022/12/16 03:01:03;;;;;;;35.63;23.95;;;-1.00;99.90;;;;;;5063768;28;20283;-77
2022/12/16 03:03:40;;;;;;;35.28;24.08;;;-1.00;99.90;;;;;;5060262;28;20251;-80
2022/12/16 03:06:10;;;;;;;31.63;24.15;;;-0.90;99.90;;;;;;5057120;28;20228;-78
2022/12/16 03:08:41;;;;;;;41.38;24.42;;;-0.90;99.90;;;;;;5055881;28;20235;-79
2022/12/16 03:11:09;;;;;;;34.88;23.55;;;-0.90;99.90;;;;;;5060260;28;20591;-78
2022/12/16 03:13:40;;;;;;;32.63;24.30;;;-0.90;99.90;;;;;;5057690;28;20303;-81
2022/12/16 03:16:11;;;;;;;36.05;25.30;;;-0.90;99.90;;;;;;5068076;28;20220;-80
2022/12/16 03:18:40;;;;;;;32.03;23.58;;;-0.90;99.90;;;;;;5068604;28;20239;-81
2022/12/16 03:21:09;;;;;;;36.38;23.67;;;-0.90;99.90;;;;;;5067197;28;20227;-79
2022/12/16 03:23:41;;;;;;;33.03;24.05;;;-0.90;99.90;;;;;;5062284;28;20324;-78
2022/12/16 03:26:14;;;;;;;38.78;24.30;;;-0.90;99.90;;;;;;5055789;28;20286;-78
2022/12/16 03:28:48;;;;;;;39.15;24.95;;;-0.90;99.90;;;;;;5055800;28;20648;-79
2022/12/16 03:31:28;;;;;;;35.50;24.55;;;-0.90;99.90;;;;;;5066725;28;20224;-79
2022/12/16 03:34:01;;;;;;;35.42;25.40;;;-0.90;99.90;;;;;;5046967;28;20710;-78
2022/12/16 03:36:33;;;;;;;34.33;23.25;;;-0.90;99.90;;;;;;5043759;28;20718;-78
2022/12/16 03:39:01;;;;;;;39.92;26.27;;;-0.90;99.90;;;;;;5040819;28;20244;-78
2022/12/16 03:41:29;;;;;;;40.80;25.95;;;-0.90;99.90;;;;;;5054586;28;20252;-77
2022/12/16 03:43:58;;;;;;;31.13;23.13;;;-0.90;99.90;;;;;;5053961;28;20617;-77
2022/12/16 03:46:27;;;;;;;32.50;23.85;;;-0.90;99.90;;;;;;5053905;28;20571;-77
2022/12/16 03:48:54;;;;;;;31.83;23.17;;;-1.00;99.90;;;;;;5052538;28;20252;-77
2022/12/16 03:51:21;;;;;;;39.15;24.35;;;-1.00;99.90;;;;;;5069492;28;20419;-77
2022/12/16 03:53:48;;;;;;;33.28;22.38;;;-1.00;99.90;;;;;;5074662;28;20310;-78
2022/12/16 03:56:18;;;;;;;29.88;23.85;;;-1.00;99.90;;;;;;5077439;28;20289;-78
2022/12/16 03:58:45;;;;;;;30.40;21.20;;;-1.00;99.90;;;;;;5074067;28;20232;-78
2022/12/16 04:01:15;;;;;;;36.30;24.73;;;-1.00;99.90;;;;;;5075304;28;20710;-78
2022/12/16 04:03:43;;;;;;;33.28;24.95;;;-1.00;99.90;;;;;;5074858;28;20228;-79
2022/12/16 04:06:10;;;;;;;36.63;25.38;;;-1.00;99.90;;;;;;5074486;28;20238;-79
2022/12/16 04:08:37;;;;;;;34.72;23.67;;;-1.00;99.90;;;;;;5074945;28;20624;-80
2022/12/16 04:25:07;;;;;;;30.83;24.40;;;-1.10;99.90;;;;;;5053493;28;20568;-78
2022/12/16 04:27:38;;;;;;;39.00;24.30;;;-1.10;99.90;;;;;;5054150;28;20227;-79
2022/12/16 04:30:19;;;;;;;30.25;24.17;;;-1.10;99.90;;;;;;5054819;28;20328;-79
